KTMB/TMB METAR and TAF weather

Enter ICAO airport designator
Station Type Date Time Source
KTMB METAR 2020/09/28 08:53 UTC NOAA

KTMB 280853Z AUTO 00000KT 10SM CLR 26/24 A2987 RMK AO2 SLP113 T02560244 56009


Station Type Date Time Source
KTMB Decoded METAR 2020/09/28 08:53 UTC NOAA

KENDALL-TAMIAMI EXEC AIRPORT , FL, United States (KTMB) 25-39N 080-26W 2M
Sep 28, 2020 - 04:53 AM EDT / 2020.09.28 0853 UTC
Wind: Calm:0
Visibility: 10 mile(s):0
Sky conditions: clear
Temperature: 78.1 F (25.6 C)
Dew Point: 75.9 F (24.4 C)
Relative Humidity: 93%
Pressure (altimeter): 29.87 in. Hg (1011 hPa)
Pressure tendency: 0.03 inches (0.9 hPa) lower than three hours ago
ob: KTMB 280853Z AUTO 00000KT 10SM CLR 26/24 A2987 RMK AO2 SLP113 T02560244 56009
cycle: 9

Station Type Date Time Source
KTMB TAF 2020/09/28 06:40 UTC NOAA

TAF KTMB 280538Z 2806/2906 VRB03KT P6SM SCT250
FM281600 16010KT P6SM VCSH SCT025 BKN050 PROB30 2817/2823 VRB10G30KT 3SM TSRA SCT025CB BKN035
FM290100 VRB03KT P6SM SCT025 SCT250
AMD NOT SKED 2806/2809

Example: see airport list